sensor_id;sensor_type;location;lat;lon;timestamp;P1;durP1;ratioP1;P2;durP2;ratioP2
4744;SDS011;2386;42.138;24.746;2023-05-14T00:02:21;15.50;;;6.23;;
4744;SDS011;2386;42.138;24.746;2023-05-14T00:04:46;4.87;;;4.17;;
4744;SDS011;2386;42.138;24.746;2023-05-14T00:07:12;4.90;;;4.50;;
4744;SDS011;2386;42.138;24.746;2023-05-14T00:09:37;3.93;;;3.63;;
4744;SDS011;2386;42.138;24.746;2023-05-14T00:12:03;6.00;;;4.50;;
4744;SDS011;2386;42.138;24.746;2023-05-14T00:14:28;7.27;;;4.10;;
4744;SDS011;2386;42.138;24.746;2023-05-14T00:16:54;4.80;;;4.20;;
4744;SDS011;2386;42.138;24.746;2023-05-14T00:19:19;7.70;;;3.83;;
4744;SDS011;2386;42.138;24.746;2023-05-14T00:21:45;10.00;;;4.27;;
4744;SDS011;2386;42.138;24.746;2023-05-14T00:24:11;5.13;;;4.00;;
4744;SDS011;2386;42.138;24.746;2023-05-14T00:26:36;5.50;;;4.00;;
4744;SDS011;2386;42.138;24.746;2023-05-14T00:29:02;4.37;;;3.90;;
4744;SDS011;2386;42.138;24.746;2023-05-14T00:31:27;4.00;;;3.60;;
4744;SDS011;2386;42.138;24.746;2023-05-14T00:33:53;5.47;;;4.20;;
4744;SDS011;2386;42.138;24.746;2023-05-14T00:36:18;9.67;;;4.37;;
4744;SDS011;2386;42.138;24.746;2023-05-14T00:38:43;5.23;;;3.43;;
4744;SDS011;2386;42.138;24.746;2023-05-14T00:41:09;6.90;;;4.27;;
4744;SDS011;2386;42.138;24.746;2023-05-14T00:43:34;6.43;;;4.13;;
4744;SDS011;2386;42.138;24.746;2023-05-14T00:46:00;5.07;;;3.90;;
4744;SDS011;2386;42.138;24.746;2023-05-14T00:48:25;5.63;;;3.70;;
4744;SDS011;2386;42.138;24.746;2023-05-14T00:50:51;3.50;;;3.23;;
4744;SDS011;2386;42.138;24.746;2023-05-14T00:53:17;8.70;;;4.13;;
4744;SDS011;2386;42.138;24.746;2023-05-14T00:55:44;16.10;;;3.70;;
4744;SDS011;2386;42.138;24.746;2023-05-14T00:58:11;4.70;;;4.20;;
4744;SDS011;2386;42.138;24.746;2023-05-14T01:00:38;6.17;;;4.40;;
4744;SDS011;2386;42.138;24.746;2023-05-14T01:03:04;5.50;;;4.50;;
4744;SDS011;2386;42.138;24.746;2023-05-14T01:05:36;8.80;;;4.40;;
4744;SDS011;2386;42.138;24.746;2023-05-14T01:10:59;4.10;;;3.63;;
4744;SDS011;2386;42.138;24.746;2023-05-14T01:13:33;4.87;;;4.00;;
4744;SDS011;2386;42.138;24.746;2023-05-14T01:16:12;8.30;;;4.13;;
4744;SDS011;2386;42.138;24.746;2023-05-14T01:18:39;5.83;;;4.50;;
4744;SDS011;2386;42.138;24.746;2023-05-14T01:21:17;5.00;;;4.20;;
4744;SDS011;2386;42.138;24.746;2023-05-14T01:23:47;4.27;;;3.87;;
4744;SDS011;2386;42.138;24.746;2023-05-14T01:26:13;4.80;;;4.30;;
4744;SDS011;2386;42.138;24.746;2023-05-14T01:28:38;11.80;;;4.20;;
4744;SDS011;2386;42.138;24.746;2023-05-14T01:31:09;10.40;;;4.47;;
4744;SDS011;2386;42.138;24.746;2023-05-14T01:33:41;9.00;;;4.33;;
4744;SDS011;2386;42.138;24.746;2023-05-14T01:36:09;7.47;;;4.60;;
4744;SDS011;2386;42.138;24.746;2023-05-14T01:38:34;7.90;;;4.70;;
4744;SDS011;2386;42.138;24.746;2023-05-14T01:41:01;4.83;;;4.37;;
4744;SDS011;2386;42.138;24.746;2023-05-14T01:43:27;5.43;;;4.83;;
4744;SDS011;2386;42.138;24.746;2023-05-14T01:45:53;7.03;;;5.20;;
4744;SDS011;2386;42.138;24.746;2023-05-14T01:48:19;4.93;;;4.53;;
4744;SDS011;2386;42.138;24.746;2023-05-14T01:50:45;7.70;;;5.20;;
4744;SDS011;2386;42.138;24.746;2023-05-14T01:53:10;11.67;;;5.10;;
4744;SDS011;2386;42.138;24.746;2023-05-14T01:55:35;27.93;;;7.50;;
4744;SDS011;2386;42.138;24.746;2023-05-14T01:58:01;21.33;;;7.10;;
4744;SDS011;2386;42.138;24.746;2023-05-14T02:00:26;5.80;;;4.60;;
4744;SDS011;2386;42.138;24.746;2023-05-14T02:02:51;11.23;;;4.50;;
4744;SDS011;2386;42.138;24.746;2023-05-14T02:05:17;6.40;;;4.93;;
4744;SDS011;2386;42.138;24.746;2023-05-14T02:07:42;7.40;;;4.97;;
4744;SDS011;2386;42.138;24.746;2023-05-14T02:10:08;7.03;;;4.37;;
4744;SDS011;2386;42.138;24.746;2023-05-14T02:12:34;12.37;;;4.40;;
4744;SDS011;2386;42.138;24.746;2023-05-14T02:15:00;6.57;;;4.23;;
4744;SDS011;2386;42.138;24.746;2023-05-14T02:17:25;15.70;;;5.40;;
4744;SDS011;2386;42.138;24.746;2023-05-14T02:19:51;15.00;;;5.10;;
4744;SDS011;2386;42.138;24.746;2023-05-14T02:22:17;9.70;;;4.50;;
4744;SDS011;2386;42.138;24.746;2023-05-14T02:24:42;7.60;;;4.60;;
4744;SDS011;2386;42.138;24.746;2023-05-14T02:27:07;7.23;;;4.90;;
4744;SDS011;2386;42.138;24.746;2023-05-14T02:29:33;8.00;;;5.20;;
4744;SDS011;2386;42.138;24.746;2023-05-14T02:31:58;9.10;;;4.60;;
4744;SDS011;2386;42.138;24.746;2023-05-14T02:34:24;6.13;;;5.50;;
4744;SDS011;2386;42.138;24.746;2023-05-14T02:36:49;25.73;;;6.60;;
4744;SDS011;2386;42.138;24.746;2023-05-14T02:39:14;9.30;;;5.90;;
4744;SDS011;2386;42.138;24.746;2023-05-14T02:41:40;7.73;;;5.23;;
4744;SDS011;2386;42.138;24.746;2023-05-14T02:44:05;32.97;;;6.43;;
4744;SDS011;2386;42.138;24.746;2023-05-14T02:46:31;8.30;;;6.00;;
4744;SDS011;2386;42.138;24.746;2023-05-14T02:48:56;7.73;;;5.10;;
4744;SDS011;2386;42.138;24.746;2023-05-14T02:51:22;5.70;;;5.10;;
4744;SDS011;2386;42.138;24.746;2023-05-14T02:53:47;6.50;;;4.90;;
4744;SDS011;2386;42.138;24.746;2023-05-14T02:56:13;6.27;;;5.10;;
4744;SDS011;2386;42.138;24.746;2023-05-14T02:58:38;6.40;;;4.90;;
4744;SDS011;2386;42.138;24.746;2023-05-14T03:01:04;8.63;;;5.40;;
4744;SDS011;2386;42.138;24.746;2023-05-14T03:03:29;10.23;;;5.13;;
4744;SDS011;2386;42.138;24.746;2023-05-14T03:05:55;7.07;;;5.00;;
4744;SDS011;2386;42.138;24.746;2023-05-14T03:08:20;16.03;;;5.93;;
4744;SDS011;2386;42.138;24.746;2023-05-14T03:10:46;12.10;;;5.43;;
4744;SDS011;2386;42.138;24.746;2023-05-14T03:13:11;15.40;;;5.07;;
4744;SDS011;2386;42.138;24.746;2023-05-14T03:15:36;8.60;;;5.07;;
4744;SDS011;2386;42.138;24.746;2023-05-14T03:18:02;5.30;;;4.50;;
4744;SDS011;2386;42.138;24.746;2023-05-14T03:20:27;9.70;;;5.43;;
4744;SDS011;2386;42.138;24.746;2023-05-14T03:22:53;7.70;;;4.83;;
4744;SDS011;2386;42.138;24.746;2023-05-14T03:25:20;5.20;;;4.53;;
4744;SDS011;2386;42.138;24.746;2023-05-14T03:27:45;5.37;;;4.83;;
4744;SDS011;2386;42.138;24.746;2023-05-14T03:30:11;9.23;;;4.83;;
4744;SDS011;2386;42.138;24.746;2023-05-14T03:32:36;9.50;;;4.87;;
4744;SDS011;2386;42.138;24.746;2023-05-14T03:35:02;7.90;;;4.80;;
4744;SDS011;2386;42.138;24.746;2023-05-14T03:37:27;5.00;;;4.50;;
4744;SDS011;2386;42.138;24.746;2023-05-14T03:39:53;11.47;;;4.83;;
4744;SDS011;2386;42.138;24.746;2023-05-14T03:42:18;6.03;;;4.80;;
4744;SDS011;2386;42.138;24.746;2023-05-14T03:44:43;9.43;;;5.43;;
4744;SDS011;2386;42.138;24.746;2023-05-14T03:47:09;10.57;;;4.90;;
4744;SDS011;2386;42.138;24.746;2023-05-14T03:49:34;11.73;;;5.27;;
4744;SDS011;2386;42.138;24.746;2023-05-14T03:52:00;8.33;;;5.20;;
4744;SDS011;2386;42.138;24.746;2023-05-14T03:54:25;11.10;;;5.40;;
4744;SDS011;2386;42.138;24.746;2023-05-14T03:56:51;13.00;;;5.13;;
4744;SDS011;2386;42.138;24.746;2023-05-14T03:59:16;8.10;;;5.00;;
4744;SDS011;2386;42.138;24.746;2023-05-14T04:01:42;7.80;;;5.47;;
4744;SDS011;2386;42.138;24.746;2023-05-14T04:04:08;14.83;;;5.90;;
4744;SDS011;2386;42.138;24.746;2023-05-14T04:06:33;16.20;;;5.93;;
4744;SDS011;2386;42.138;24.746;2023-05-14T04:08:58;15.47;;;6.07;;
4744;SDS011;2386;42.138;24.746;2023-05-14T04:11:24;15.10;;;6.57;;
4744;SDS011;2386;42.138;24.746;2023-05-14T04:13:49;21.60;;;6.80;;
4744;SDS011;2386;42.138;24.746;2023-05-14T04:16:14;15.47;;;6.37;;
4744;SDS011;2386;42.138;24.746;2023-05-14T04:18:40;31.40;;;6.27;;
4744;SDS011;2386;42.138;24.746;2023-05-14T04:21:05;9.50;;;5.80;;
4744;SDS011;2386;42.138;24.746;2023-05-14T04:23:30;11.47;;;6.03;;
4744;SDS011;2386;42.138;24.746;2023-05-14T04:25:56;9.17;;;5.60;;
4744;SDS011;2386;42.138;24.746;2023-05-14T04:28:22;10.27;;;5.70;;
4744;SDS011;2386;42.138;24.746;2023-05-14T04:30:48;11.23;;;5.53;;
4744;SDS011;2386;42.138;24.746;2023-05-14T04:33:13;8.33;;;5.53;;
4744;SDS011;2386;42.138;24.746;2023-05-14T04:35:39;9.70;;;5.60;;
4744;SDS011;2386;42.138;24.746;2023-05-14T04:38:04;12.20;;;6.70;;
4744;SDS011;2386;42.138;24.746;2023-05-14T04:40:30;18.37;;;8.43;;
4744;SDS011;2386;42.138;24.746;2023-05-14T04:42:55;16.07;;;5.67;;
4744;SDS011;2386;42.138;24.746;2023-05-14T04:45:21;8.07;;;4.93;;
4744;SDS011;2386;42.138;24.746;2023-05-14T04:47:46;6.87;;;5.57;;
4744;SDS011;2386;42.138;24.746;2023-05-14T04:50:12;5.90;;;5.30;;
4744;SDS011;2386;42.138;24.746;2023-05-14T04:52:37;13.40;;;6.33;;
4744;SDS011;2386;42.138;24.746;2023-05-14T04:55:03;9.10;;;5.80;;
4744;SDS011;2386;42.138;24.746;2023-05-14T04:57:29;7.80;;;5.30;;
4744;SDS011;2386;42.138;24.746;2023-05-14T04:59:54;7.50;;;5.53;;
4744;SDS011;2386;42.138;24.746;2023-05-14T05:02:20;7.83;;;5.80;;
4744;SDS011;2386;42.138;24.746;2023-05-14T05:04:45;13.13;;;7.10;;
4744;SDS011;2386;42.138;24.746;2023-05-14T05:07:11;16.57;;;7.00;;
4744;SDS011;2386;42.138;24.746;2023-05-14T05:09:37;11.90;;;6.20;;
4744;SDS011;2386;42.138;24.746;2023-05-14T05:12:03;9.00;;;5.70;;
4744;SDS011;2386;42.138;24.746;2023-05-14T05:14:28;9.93;;;6.90;;
4744;SDS011;2386;42.138;24.746;2023-05-14T05:16:54;22.83;;;6.40;;
4744;SDS011;2386;42.138;24.746;2023-05-14T05:19:19;8.77;;;6.33;;
4744;SDS011;2386;42.138;24.746;2023-05-14T05:21:44;13.63;;;5.90;;
4744;SDS011;2386;42.138;24.746;2023-05-14T05:24:10;7.33;;;5.93;;
4744;SDS011;2386;42.138;24.746;2023-05-14T05:26:37;11.67;;;6.40;;
4744;SDS011;2386;42.138;24.746;2023-05-14T05:29:03;11.37;;;5.97;;
4744;SDS011;2386;42.138;24.746;2023-05-14T05:31:29;8.13;;;6.40;;
4744;SDS011;2386;42.138;24.746;2023-05-14T05:33:55;10.47;;;7.20;;
4744;SDS011;2386;42.138;24.746;2023-05-14T05:36:21;9.50;;;6.00;;
4744;SDS011;2386;42.138;24.746;2023-05-14T05:38:46;7.93;;;5.90;;
4744;SDS011;2386;42.138;24.746;2023-05-14T05:41:12;8.77;;;6.17;;
4744;SDS011;2386;42.138;24.746;2023-05-14T05:43:37;6.60;;;5.70;;
4744;SDS011;2386;42.138;24.746;2023-05-14T05:46:02;8.80;;;6.00;;
4744;SDS011;2386;42.138;24.746;2023-05-14T05:48:28;9.00;;;5.63;;
4744;SDS011;2386;42.138;24.746;2023-05-14T05:50:53;10.17;;;6.70;;
4744;SDS011;2386;42.138;24.746;2023-05-14T05:53:19;12.23;;;5.70;;
4744;SDS011;2386;42.138;24.746;2023-05-14T05:55:44;9.63;;;5.80;;
4744;SDS011;2386;42.138;24.746;2023-05-14T05:58:09;7.30;;;5.63;;
4744;SDS011;2386;42.138;24.746;2023-05-14T06:00:35;8.40;;;5.40;;
4744;SDS011;2386;42.138;24.746;2023-05-14T06:03:00;6.13;;;5.17;;
4744;SDS011;2386;42.138;24.746;2023-05-14T06:05:26;12.20;;;6.50;;
4744;SDS011;2386;42.138;24.746;2023-05-14T06:07:51;6.43;;;4.93;;
4744;SDS011;2386;42.138;24.746;2023-05-14T06:10:17;8.60;;;5.43;;
4744;SDS011;2386;42.138;24.746;2023-05-14T06:12:43;6.70;;;5.50;;
4744;SDS011;2386;42.138;24.746;2023-05-14T06:15:09;18.30;;;5.77;;
4744;SDS011;2386;42.138;24.746;2023-05-14T06:17:36;9.00;;;5.47;;
4744;SDS011;2386;42.138;24.746;2023-05-14T06:20:01;7.73;;;5.47;;
4744;SDS011;2386;42.138;24.746;2023-05-14T06:22:29;5.40;;;4.87;;
4744;SDS011;2386;42.138;24.746;2023-05-14T06:24:55;22.60;;;5.60;;
4744;SDS011;2386;42.138;24.746;2023-05-14T06:27:20;13.83;;;5.67;;
4744;SDS011;2386;42.138;24.746;2023-05-14T06:29:45;12.10;;;5.70;;
4744;SDS011;2386;42.138;24.746;2023-05-14T06:32:11;9.13;;;5.70;;
4744;SDS011;2386;42.138;24.746;2023-05-14T06:34:39;7.63;;;5.87;;
4744;SDS011;2386;42.138;24.746;2023-05-14T06:37:05;7.20;;;6.00;;
4744;SDS011;2386;42.138;24.746;2023-05-14T06:39:31;11.53;;;7.80;;
4744;SDS011;2386;42.138;24.746;2023-05-14T06:41:56;8.87;;;6.50;;
4744;SDS011;2386;42.138;24.746;2023-05-14T06:44:21;10.70;;;6.20;;
4744;SDS011;2386;42.138;24.746;2023-05-14T06:46:47;14.23;;;7.20;;
4744;SDS011;2386;42.138;24.746;2023-05-14T06:49:12;7.00;;;6.30;;
4744;SDS011;2386;42.138;24.746;2023-05-14T06:51:37;9.30;;;6.90;;
4744;SDS011;2386;42.138;24.746;2023-05-14T06:54:04;10.90;;;6.47;;
4744;SDS011;2386;42.138;24.746;2023-05-14T06:56:30;12.93;;;7.60;;
4744;SDS011;2386;42.138;24.746;2023-05-14T06:58:55;12.30;;;7.70;;
4744;SDS011;2386;42.138;24.746;2023-05-14T07:01:20;16.33;;;7.67;;
4744;SDS011;2386;42.138;24.746;2023-05-14T07:03:46;10.33;;;7.50;;
4744;SDS011;2386;42.138;24.746;2023-05-14T07:06:11;16.37;;;8.07;;
4744;SDS011;2386;42.138;24.746;2023-05-14T07:08:37;10.00;;;7.53;;
4744;SDS011;2386;42.138;24.746;2023-05-14T07:11:03;11.63;;;7.93;;
4744;SDS011;2386;42.138;24.746;2023-05-14T07:13:28;12.60;;;7.53;;
4744;SDS011;2386;42.138;24.746;2023-05-14T07:15:54;11.57;;;8.00;;
4744;SDS011;2386;42.138;24.746;2023-05-14T07:18:20;11.20;;;8.70;;
4744;SDS011;2386;42.138;24.746;2023-05-14T07:20:46;11.30;;;8.70;;
4744;SDS011;2386;42.138;24.746;2023-05-14T07:23:12;12.83;;;8.40;;
4744;SDS011;2386;42.138;24.746;2023-05-14T07:25:37;12.57;;;7.63;;
4744;SDS011;2386;42.138;24.746;2023-05-14T07:28:02;13.00;;;7.77;;
4744;SDS011;2386;42.138;24.746;2023-05-14T07:30:28;15.33;;;8.83;;
4744;SDS011;2386;42.138;24.746;2023-05-14T07:32:53;11.90;;;9.27;;
4744;SDS011;2386;42.138;24.746;2023-05-14T07:35:18;11.53;;;8.70;;
4744;SDS011;2386;42.138;24.746;2023-05-14T07:37:44;13.17;;;9.40;;
4744;SDS011;2386;42.138;24.746;2023-05-14T07:40:10;15.43;;;8.67;;
4744;SDS011;2386;42.138;24.746;2023-05-14T07:42:35;15.70;;;9.70;;
4744;SDS011;2386;42.138;24.746;2023-05-14T07:45:01;15.70;;;10.20;;
4744;SDS011;2386;42.138;24.746;2023-05-14T07:47:26;12.97;;;9.77;;
4744;SDS011;2386;42.138;24.746;2023-05-14T07:49:55;23.43;;;12.97;;
4744;SDS011;2386;42.138;24.746;2023-05-14T07:52:21;12.97;;;9.40;;
4744;SDS011;2386;42.138;24.746;2023-05-14T07:54:47;17.13;;;11.70;;
4744;SDS011;2386;42.138;24.746;2023-05-14T07:57:14;19.63;;;11.57;;
4744;SDS011;2386;42.138;24.746;2023-05-14T07:59:39;15.67;;;11.60;;
4744;SDS011;2386;42.138;24.746;2023-05-14T08:02:05;16.40;;;11.97;;
4744;SDS011;2386;42.138;24.746;2023-05-14T08:04:30;18.20;;;11.80;;
4744;SDS011;2386;42.138;24.746;2023-05-14T08:06:56;18.00;;;10.83;;
4744;SDS011;2386;42.138;24.746;2023-05-14T08:09:22;16.40;;;11.10;;
4744;SDS011;2386;42.138;24.746;2023-05-14T08:11:47;16.60;;;11.07;;
4744;SDS011;2386;42.138;24.746;2023-05-14T08:14:13;14.57;;;10.70;;
4744;SDS011;2386;42.138;24.746;2023-05-14T08:16:38;15.33;;;11.10;;
4744;SDS011;2386;42.138;24.746;2023-05-14T08:19:04;15.10;;;10.57;;
4744;SDS011;2386;42.138;24.746;2023-05-14T08:21:29;13.70;;;9.80;;
4744;SDS011;2386;42.138;24.746;2023-05-14T08:23:55;13.00;;;10.10;;
4744;SDS011;2386;42.138;24.746;2023-05-14T08:26:21;15.40;;;11.13;;
4744;SDS011;2386;42.138;24.746;2023-05-14T08:28:46;20.50;;;11.50;;
4744;SDS011;2386;42.138;24.746;2023-05-14T08:31:12;18.97;;;10.70;;
4744;SDS011;2386;42.138;24.746;2023-05-14T08:33:38;17.00;;;11.07;;
4744;SDS011;2386;42.138;24.746;2023-05-14T08:36:04;19.57;;;11.90;;
4744;SDS011;2386;42.138;24.746;2023-05-14T08:38:31;27.40;;;11.27;;
4744;SDS011;2386;42.138;24.746;2023-05-14T08:40:56;22.30;;;11.40;;
4744;SDS011;2386;42.138;24.746;2023-05-14T08:43:28;16.60;;;12.43;;
4744;SDS011;2386;42.138;24.746;2023-05-14T08:45:59;22.77;;;12.33;;
4744;SDS011;2386;42.138;24.746;2023-05-14T08:48:28;19.30;;;11.70;;
4744;SDS011;2386;42.138;24.746;2023-05-14T08:50:57;21.57;;;12.77;;
4744;SDS011;2386;42.138;24.746;2023-05-14T08:53:23;19.47;;;10.37;;
4744;SDS011;2386;42.138;24.746;2023-05-14T08:55:49;17.70;;;11.60;;
4744;SDS011;2386;42.138;24.746;2023-05-14T08:58:15;17.87;;;11.40;;
4744;SDS011;2386;42.138;24.746;2023-05-14T09:00:41;13.67;;;10.40;;
4744;SDS011;2386;42.138;24.746;2023-05-14T09:03:07;18.80;;;11.23;;
4744;SDS011;2386;42.138;24.746;2023-05-14T09:05:32;19.83;;;12.27;;
4744;SDS011;2386;42.138;24.746;2023-05-14T09:07:58;16.03;;;10.93;;
4744;SDS011;2386;42.138;24.746;2023-05-14T09:10:23;19.23;;;11.63;;
4744;SDS011;2386;42.138;24.746;2023-05-14T09:12:49;16.00;;;10.30;;
4744;SDS011;2386;42.138;24.746;2023-05-14T09:15:15;22.47;;;11.23;;
4744;SDS011;2386;42.138;24.746;2023-05-14T09:17:41;13.87;;;10.77;;
4744;SDS011;2386;42.138;24.746;2023-05-14T09:20:07;19.53;;;11.60;;
4744;SDS011;2386;42.138;24.746;2023-05-14T09:22:34;18.90;;;12.23;;
4744;SDS011;2386;42.138;24.746;2023-05-14T09:25:06;17.50;;;12.00;;
4744;SDS011;2386;42.138;24.746;2023-05-14T09:27:35;21.53;;;11.57;;
4744;SDS011;2386;42.138;24.746;2023-05-14T09:30:10;17.37;;;11.27;;
4744;SDS011;2386;42.138;24.746;2023-05-14T09:32:37;14.87;;;12.43;;
4744;SDS011;2386;42.138;24.746;2023-05-14T09:37:43;14.97;;;11.57;;
4744;SDS011;2386;42.138;24.746;2023-05-14T09:40:11;20.90;;;12.57;;
4744;SDS011;2386;42.138;24.746;2023-05-14T09:42:37;14.17;;;11.63;;
4744;SDS011;2386;42.138;24.746;2023-05-14T09:45:03;15.43;;;11.10;;
4744;SDS011;2386;42.138;24.746;2023-05-14T09:47:29;13.23;;;10.83;;
4744;SDS011;2386;42.138;24.746;2023-05-14T09:49:55;16.03;;;11.10;;
4744;SDS011;2386;42.138;24.746;2023-05-14T09:52:22;23.13;;;11.57;;
4744;SDS011;2386;42.138;24.746;2023-05-14T09:54:50;14.87;;;12.60;;
4744;SDS011;2386;42.138;24.746;2023-05-14T09:57:16;16.67;;;12.07;;
4744;SDS011;2386;42.138;24.746;2023-05-14T09:59:41;21.57;;;12.33;;
4744;SDS011;2386;42.138;24.746;2023-05-14T10:02:09;18.17;;;13.50;;
4744;SDS011;2386;42.138;24.746;2023-05-14T10:04:49;20.33;;;13.20;;
4744;SDS011;2386;42.138;24.746;2023-05-14T10:07:18;17.27;;;11.97;;
4744;SDS011;2386;42.138;24.746;2023-05-14T10:09:56;16.70;;;12.90;;
4744;SDS011;2386;42.138;24.746;2023-05-14T10:12:26;22.00;;;12.70;;
4744;SDS011;2386;42.138;24.746;2023-05-14T10:15:02;21.00;;;13.87;;
4744;SDS011;2386;42.138;24.746;2023-05-14T10:17:31;14.43;;;11.23;;
4744;SDS011;2386;42.138;24.746;2023-05-14T10:19:59;17.70;;;13.77;;
4744;SDS011;2386;42.138;24.746;2023-05-14T10:22:32;18.83;;;13.27;;
4744;SDS011;2386;42.138;24.746;2023-05-14T10:25:01;16.20;;;11.57;;
4744;SDS011;2386;42.138;24.746;2023-05-14T10:27:27;17.83;;;11.93;;
4744;SDS011;2386;42.138;24.746;2023-05-14T10:29:54;13.63;;;12.17;;
4744;SDS011;2386;42.138;24.746;2023-05-14T10:32:20;20.50;;;13.37;;
4744;SDS011;2386;42.138;24.746;2023-05-14T10:34:49;16.80;;;12.93;;
4744;SDS011;2386;42.138;24.746;2023-05-14T10:37:15;16.73;;;12.30;;
4744;SDS011;2386;42.138;24.746;2023-05-14T10:39:52;21.53;;;13.00;;
4744;SDS011;2386;42.138;24.746;2023-05-14T10:42:26;17.93;;;13.33;;
4744;SDS011;2386;42.138;24.746;2023-05-14T10:44:53;18.70;;;14.30;;
4744;SDS011;2386;42.138;24.746;2023-05-14T10:47:22;16.47;;;13.30;;
4744;SDS011;2386;42.138;24.746;2023-05-14T10:49:48;17.17;;;13.93;;
4744;SDS011;2386;42.138;24.746;2023-05-14T10:52:17;20.27;;;14.60;;
4744;SDS011;2386;42.138;24.746;2023-05-14T10:57:16;19.83;;;13.10;;
4744;SDS011;2386;42.138;24.746;2023-05-14T10:59:43;16.77;;;14.20;;
4744;SDS011;2386;42.138;24.746;2023-05-14T11:02:18;16.67;;;13.07;;
4744;SDS011;2386;42.138;24.746;2023-05-14T11:05:19;21.27;;;13.97;;
4744;SDS011;2386;42.138;24.746;2023-05-14T11:07:43;15.77;;;13.20;;
4744;SDS011;2386;42.138;24.746;2023-05-14T11:10:14;18.57;;;13.57;;
4744;SDS011;2386;42.138;24.746;2023-05-14T11:12:46;17.53;;;13.53;;
4744;SDS011;2386;42.138;24.746;2023-05-14T11:15:13;16.17;;;13.17;;
4744;SDS011;2386;42.138;24.746;2023-05-14T11:17:45;21.87;;;13.90;;
4744;SDS011;2386;42.138;24.746;2023-05-14T11:20:12;18.70;;;14.23;;
4744;SDS011;2386;42.138;24.746;2023-05-14T11:22:38;17.63;;;14.03;;
4744;SDS011;2386;42.138;24.746;2023-05-14T11:25:05;18.10;;;14.23;;
4744;SDS011;2386;42.138;24.746;2023-05-14T11:27:33;18.23;;;14.30;;
4744;SDS011;2386;42.138;24.746;2023-05-14T11:29:59;18.87;;;13.70;;
4744;SDS011;2386;42.138;24.746;2023-05-14T11:32:25;21.80;;;14.87;;
4744;SDS011;2386;42.138;24.746;2023-05-14T11:34:51;15.97;;;13.43;;
4744;SDS011;2386;42.138;24.746;2023-05-14T11:37:16;22.10;;;15.17;;
4744;SDS011;2386;42.138;24.746;2023-05-14T11:39:48;16.90;;;14.33;;
4744;SDS011;2386;42.138;24.746;2023-05-14T11:42:16;15.47;;;13.20;;
4744;SDS011;2386;42.138;24.746;2023-05-14T11:44:44;19.07;;;14.47;;
4744;SDS011;2386;42.138;24.746;2023-05-14T11:47:11;20.13;;;14.60;;
4744;SDS011;2386;42.138;24.746;2023-05-14T11:49:36;22.33;;;14.90;;
4744;SDS011;2386;42.138;24.746;2023-05-14T11:52:03;21.70;;;14.00;;
4744;SDS011;2386;42.138;24.746;2023-05-14T11:54:30;23.30;;;15.87;;
4744;SDS011;2386;42.138;24.746;2023-05-14T11:56:57;16.57;;;13.73;;
4744;SDS011;2386;42.138;24.746;2023-05-14T11:59:24;20.83;;;15.20;;
4744;SDS011;2386;42.138;24.746;2023-05-14T12:01:56;17.00;;;14.73;;
4744;SDS011;2386;42.138;24.746;2023-05-14T12:04:22;15.97;;;13.17;;
4744;SDS011;2386;42.138;24.746;2023-05-14T12:06:48;15.47;;;13.40;;
4744;SDS011;2386;42.138;24.746;2023-05-14T12:09:15;14.60;;;12.83;;
4744;SDS011;2386;42.138;24.746;2023-05-14T12:11:47;13.97;;;12.43;;
4744;SDS011;2386;42.138;24.746;2023-05-14T12:14:14;15.27;;;12.77;;
4744;SDS011;2386;42.138;24.746;2023-05-14T12:16:42;17.27;;;13.10;;
4744;SDS011;2386;42.138;24.746;2023-05-14T12:19:09;17.50;;;13.70;;
4744;SDS011;2386;42.138;24.746;2023-05-14T12:21:38;17.20;;;13.57;;
4744;SDS011;2386;42.138;24.746;2023-05-14T12:24:08;15.53;;;13.40;;
4744;SDS011;2386;42.138;24.746;2023-05-14T12:26:35;17.77;;;13.37;;
4744;SDS011;2386;42.138;24.746;2023-05-14T12:29:02;24.17;;;13.40;;
4744;SDS011;2386;42.138;24.746;2023-05-14T12:31:29;18.83;;;14.10;;
4744;SDS011;2386;42.138;24.746;2023-05-14T12:33:57;18.47;;;14.70;;
4744;SDS011;2386;42.138;24.746;2023-05-14T12:36:22;17.37;;;14.60;;
4744;SDS011;2386;42.138;24.746;2023-05-14T12:38:49;19.83;;;14.70;;
4744;SDS011;2386;42.138;24.746;2023-05-14T12:41:15;19.47;;;14.03;;
4744;SDS011;2386;42.138;24.746;2023-05-14T12:43:42;18.23;;;15.50;;
4744;SDS011;2386;42.138;24.746;2023-05-14T12:46:08;16.70;;;14.07;;
4744;SDS011;2386;42.138;24.746;2023-05-14T12:48:33;18.50;;;15.03;;
4744;SDS011;2386;42.138;24.746;2023-05-14T12:50:59;17.33;;;14.60;;
4744;SDS011;2386;42.138;24.746;2023-05-14T12:53:24;17.57;;;13.90;;
4744;SDS011;2386;42.138;24.746;2023-05-14T12:55:50;24.00;;;15.90;;
4744;SDS011;2386;42.138;24.746;2023-05-14T12:58:15;24.97;;;15.83;;
4744;SDS011;2386;42.138;24.746;2023-05-14T13:00:40;25.33;;;14.87;;
4744;SDS011;2386;42.138;24.746;2023-05-14T13:03:06;20.20;;;14.80;;
4744;SDS011;2386;42.138;24.746;2023-05-14T13:05:31;17.90;;;14.40;;
4744;SDS011;2386;42.138;24.746;2023-05-14T13:07:57;18.13;;;14.60;;
4744;SDS011;2386;42.138;24.746;2023-05-14T13:10:24;26.00;;;15.77;;
4744;SDS011;2386;42.138;24.746;2023-05-14T13:12:49;19.97;;;15.87;;
4744;SDS011;2386;42.138;24.746;2023-05-14T13:15:16;22.30;;;17.23;;
4744;SDS011;2386;42.138;24.746;2023-05-14T13:17:42;19.40;;;15.23;;
4744;SDS011;2386;42.138;24.746;2023-05-14T13:20:07;17.23;;;15.00;;
4744;SDS011;2386;42.138;24.746;2023-05-14T13:22:33;20.00;;;15.93;;
4744;SDS011;2386;42.138;24.746;2023-05-14T13:24:59;19.70;;;15.97;;
4744;SDS011;2386;42.138;24.746;2023-05-14T13:27:24;28.47;;;16.80;;
4744;SDS011;2386;42.138;24.746;2023-05-14T13:29:49;21.07;;;16.87;;
4744;SDS011;2386;42.138;24.746;2023-05-14T13:32:15;22.80;;;15.67;;
4744;SDS011;2386;42.138;24.746;2023-05-14T13:34:40;20.73;;;15.10;;
4744;SDS011;2386;42.138;24.746;2023-05-14T13:37:08;24.90;;;16.20;;
4744;SDS011;2386;42.138;24.746;2023-05-14T13:39:33;24.70;;;16.27;;
4744;SDS011;2386;42.138;24.746;2023-05-14T13:41:59;21.03;;;15.77;;
4744;SDS011;2386;42.138;24.746;2023-05-14T13:44:25;19.10;;;15.93;;
4744;SDS011;2386;42.138;24.746;2023-05-14T13:46:51;24.07;;;17.23;;
4744;SDS011;2386;42.138;24.746;2023-05-14T13:49:16;25.37;;;16.40;;
4744;SDS011;2386;42.138;24.746;2023-05-14T13:51:42;21.50;;;16.40;;
4744;SDS011;2386;42.138;24.746;2023-05-14T13:54:07;23.13;;;16.63;;
4744;SDS011;2386;42.138;24.746;2023-05-14T13:56:33;26.53;;;16.53;;
4744;SDS011;2386;42.138;24.746;2023-05-14T13:58:58;21.27;;;16.40;;
4744;SDS011;2386;42.138;24.746;2023-05-14T14:01:24;19.87;;;16.93;;
4744;SDS011;2386;42.138;24.746;2023-05-14T14:03:49;25.50;;;17.33;;
4744;SDS011;2386;42.138;24.746;2023-05-14T14:06:15;25.70;;;17.80;;
4744;SDS011;2386;42.138;24.746;2023-05-14T14:08:40;25.70;;;18.47;;
4744;SDS011;2386;42.138;24.746;2023-05-14T14:11:05;25.90;;;17.63;;
4744;SDS011;2386;42.138;24.746;2023-05-14T14:13:31;24.07;;;16.83;;
4744;SDS011;2386;42.138;24.746;2023-05-14T14:15:56;26.10;;;17.50;;
4744;SDS011;2386;42.138;24.746;2023-05-14T14:18:22;27.33;;;17.90;;
4744;SDS011;2386;42.138;24.746;2023-05-14T14:20:47;23.03;;;18.13;;
4744;SDS011;2386;42.138;24.746;2023-05-14T14:23:13;30.83;;;17.70;;
4744;SDS011;2386;42.138;24.746;2023-05-14T14:25:38;25.40;;;18.83;;
4744;SDS011;2386;42.138;24.746;2023-05-14T14:28:03;25.03;;;18.10;;
4744;SDS011;2386;42.138;24.746;2023-05-14T14:30:29;22.80;;;17.93;;
4744;SDS011;2386;42.138;24.746;2023-05-14T14:32:54;23.10;;;17.07;;
4744;SDS011;2386;42.138;24.746;2023-05-14T14:35:20;24.00;;;18.30;;
4744;SDS011;2386;42.138;24.746;2023-05-14T14:37:46;27.10;;;18.90;;
4744;SDS011;2386;42.138;24.746;2023-05-14T14:40:17;21.03;;;16.93;;
4744;SDS011;2386;42.138;24.746;2023-05-14T14:42:43;25.27;;;18.27;;
4744;SDS011;2386;42.138;24.746;2023-05-14T14:45:09;27.23;;;19.17;;
4744;SDS011;2386;42.138;24.746;2023-05-14T14:47:35;29.70;;;19.93;;
4744;SDS011;2386;42.138;24.746;2023-05-14T14:50:00;26.37;;;19.57;;